Terrebonne, Oregon
Current Conditions -  °F | °C
As of 1:56 AM on Sunday 25 Jan 2015 (Local Time) from KRDM Reporting Station
Clear Clear  
Wind Chill: 36°   Ceiling: Unl
Heat Index: 41°   Visibility: 10mi
Dew Point: 36°   Wind: 7mph
Humidity: 82%   Direction: 140°SE
Pressure: 30.29"   Gusts: NA
Location:  44.35°N, 121.18°W
Report Text: KRDM 250956Z AUTO 14006KT 10SM CLR 05/02 A3029 RMK AO2 SLP252 T00500022
Loading
Personal Weather Stations






























Interactive Weather Map New forecast layout! Learn more

10-Day Weather Forecast

Advertisements
Track Severe Weather on mobile